Time,TemperatureF,DewpointF,PressureIn,WindDirection,WindDirectionDegrees,WindSpeedMPH,WindSpeedGustMPH,Humidity,HourlyPrecipIn,Conditions,Clouds,dailyrainin,SoftwareType,DateUTC
2013-01-05 00:00:00,26.6,15.7,30.36,West,270,1.6,2.2,63,0.00,,,0.00,pywws,2013-01-05 05:00:00,
2013-01-05 00:01:00,26.6,15.7,30.37,SW,225,2.2,3.8,63,0.00,,,0.00,pywws,2013-01-05 05:01:00,
2013-01-05 00:07:00,26.8,15.9,30.37,West,270,1.6,3.1,63,0.00,,,0.00,pywws,2013-01-05 05:07:00,
2013-01-05 00:12:00,26.8,15.9,30.37,West,270,1.6,2.2,63,0.00,,,0.00,pywws,2013-01-05 05:12:00,
2013-01-05 00:18:00,26.6,15.7,30.37,North,0,0.0,0.0,63,0.00,,,0.00,pywws,2013-01-05 05:18:00,
2013-01-05 00:24:00,26.2,15.7,30.36,North,0,0.0,0.7,64,0.00,,,0.00,pywws,2013-01-05 05:24:00,
2013-01-05 00:29:00,26.2,15.7,30.35,NW,315,0.0,1.6,64,0.00,,,0.00,pywws,2013-01-05 05:29:00,
2013-01-05 00:35:00,26.2,15.7,30.36,North,0,0.0,0.7,64,0.00,,,0.00,pywws,2013-01-05 05:35:00,
2013-01-05 00:40:00,26.1,15.6,30.35,East,90,0.0,1.6,64,0.00,,,0.00,pywws,2013-01-05 05:40:00,
2013-01-05 00:46:00,25.9,15.8,30.36,NW,315,0.0,0.7,65,0.00,,,0.00,pywws,2013-01-05 05:46:00,
2013-01-05 00:52:00,25.9,15.8,30.35,NW,315,0.0,0.0,65,0.00,,,0.00,pywws,2013-01-05 05:52:00,
2013-01-05 00:57:00,26.1,15.9,30.35,North,0,0.7,3.1,65,0.00,,,0.00,pywws,2013-01-05 05:57:00,
2013-01-05 01:03:00,26.1,15.9,30.34,East,90,0.7,2.2,65,0.00,,,0.00,pywws,2013-01-05 06:03:00,
2013-01-05 01:08:00,26.4,16.3,30.34,NE,45,0.7,2.2,65,0.00,,,0.00,pywws,2013-01-05 06:08:00,
2013-01-05 01:14:00,26.4,16.3,30.34,North,0,0.0,0.7,65,0.00,,,0.00,pywws,2013-01-05 06:14:00,
2013-01-05 01:20:00,26.2,15.7,30.35,NE,45,0.0,0.7,64,0.00,,,0.00,pywws,2013-01-05 06:20:00,
2013-01-05 01:25:00,26.1,15.6,30.35,SE,135,0.0,0.0,64,0.00,,,0.00,pywws,2013-01-05 06:25:00,
2013-01-05 01:31:00,25.9,15.4,30.35,NW,315,0.0,0.7,64,0.00,,,0.00,pywws,2013-01-05 06:31:00,
2013-01-05 01:36:00,26.1,15.9,30.35,North,0,0.0,0.7,65,0.00,,,0.00,pywws,2013-01-05 06:36:00,
2013-01-05 01:42:00,25.9,15.4,30.34,NW,315,0.7,2.2,64,0.00,,,0.00,pywws,2013-01-05 06:42:00,
2013-01-05 01:48:00,25.7,15.6,30.35,NE,45,0.0,0.7,65,0.00,,,0.00,pywws,2013-01-05 06:48:00,
2013-01-05 01:53:00,25.5,15.4,30.35,SW,225,3.8,5.4,65,0.00,,,0.00,pywws,2013-01-05 06:53:00,
2013-01-05 01:59:00,25.7,15.6,30.35,West,270,1.6,2.2,65,0.00,,,0.00,pywws,2013-01-05 06:59:00,
2013-01-05 02:04:00,25.3,15.2,30.35,NW,315,0.0,0.7,65,0.00,,,0.00,pywws,2013-01-05 07:04:00,
2013-01-05 02:10:00,25.2,15.1,30.35,NW,315,1.6,2.2,65,0.00,,,0.00,pywws,2013-01-05 07:10:00,
2013-01-05 02:16:00,25.2,15.1,30.35,NW,315,0.0,0.7,65,0.00,,,0.00,pywws,2013-01-05 07:16:00,
2013-01-05 02:21:00,25.2,15.1,30.34,NW,315,0.0,1.6,65,0.00,,,0.00,pywws,2013-01-05 07:21:00,
2013-01-05 02:27:00,25.3,15.2,30.34,SW,225,2.2,5.4,65,0.00,,,0.00,pywws,2013-01-05 07:27:00,
2013-01-05 02:32:00,25.2,15.1,30.35,SW,225,1.6,3.1,65,0.00,,,0.00,pywws,2013-01-05 07:32:00,
2013-01-05 02:38:00,25.0,14.9,30.35,NW,315,0.0,0.0,65,0.00,,,0.00,pywws,2013-01-05 07:38:00,
2013-01-05 02:44:00,24.8,14.7,30.35,SW,225,1.6,2.2,65,0.00,,,0.00,pywws,2013-01-05 07:44:00,
2013-01-05 02:49:00,24.8,14.7,30.35,West,270,1.6,2.2,65,0.00,,,0.00,pywws,2013-01-05 07:49:00,
2013-01-05 02:55:00,24.8,15.1,30.35,SW,225,1.6,2.2,66,0.00,,,0.00,pywws,2013-01-05 07:55:00,
2013-01-05 03:02:00,24.6,15.3,30.34,NE,45,0.7,2.2,67,0.00,,,0.00,pywws,2013-01-05 08:02:00,
2013-01-05 03:08:00,24.6,15.6,30.34,SE,135,2.2,3.8,68,0.00,,,0.00,pywws,2013-01-05 08:08:00,
2013-01-05 03:13:00,24.6,15.6,30.35,NE,45,0.0,0.0,68,0.00,,,0.00,pywws,2013-01-05 08:13:00,
2013-01-05 03:19:00,24.4,15.4,30.35,SW,225,0.0,0.7,68,0.00,,,0.00,pywws,2013-01-05 08:19:00,
2013-01-05 03:24:00,24.3,15.2,30.35,NW,315,0.0,0.0,68,0.00,,,0.00,pywws,2013-01-05 08:24:00,
2013-01-05 03:31:00,24.1,15.1,30.35,NW,315,0.7,1.6,68,0.00,,,0.00,pywws,2013-01-05 08:31:00,
2013-01-05 03:36:00,23.9,15.2,30.34,SW,225,1.6,2.2,69,0.00,,,0.00,pywws,2013-01-05 08:36:00,
2013-01-05 03:42:00,24.3,15.9,30.34,SW,225,0.7,2.2,70,0.00,,,0.00,pywws,2013-01-05 08:42:00,
2013-01-05 03:48:00,24.3,15.9,30.34,NW,315,1.6,2.2,70,0.00,,,0.00,pywws,2013-01-05 08:48:00,
2013-01-05 03:53:00,24.6,16.3,30.35,West,270,0.7,1.6,70,0.00,,,0.00,pywws,2013-01-05 08:53:00,
2013-01-05 03:59:00,24.4,15.8,30.34,NE,45,0.0,0.7,69,0.00,,,0.00,pywws,2013-01-05 08:59:00,
2013-01-05 04:04:00,23.9,15.2,30.34,East,90,0.0,0.7,69,0.00,,,0.00,pywws,2013-01-05 09:04:00,
2013-01-05 04:10:00,23.7,15.1,30.34,West,270,0.7,1.6,69,0.00,,,0.00,pywws,2013-01-05 09:10:00,
2013-01-05 04:16:00,23.5,15.2,30.34,NE,45,0.7,1.6,70,0.00,,,0.00,pywws,2013-01-05 09:16:00,
2013-01-05 04:21:00,23.2,14.9,30.33,East,90,0.0,0.0,70,0.00,,,0.00,pywws,2013-01-05 09:21:00,
2013-01-05 04:27:00,23.5,15.5,30.33,West,270,0.0,1.6,71,0.00,,,0.00,pywws,2013-01-05 09:27:00,
2013-01-05 04:32:00,23.4,15.4,30.33,South,180,0.0,0.0,71,0.00,,,0.00,pywws,2013-01-05 09:32:00,
2013-01-05 04:38:00,23.2,14.9,30.33,North,0,0.0,0.0,70,0.00,,,0.00,pywws,2013-01-05 09:38:00,
2013-01-05 04:44:00,23.0,15.0,30.33,NE,45,0.7,1.6,71,0.00,,,0.00,pywws,2013-01-05 09:44:00,
2013-01-05 04:49:00,23.0,15.3,30.34,NE,45,0.0,0.0,72,0.00,,,0.00,pywws,2013-01-05 09:49:00,
2013-01-05 04:55:00,22.8,15.2,30.32,NE,45,0.0,0.0,72,0.00,,,0.00,pywws,2013-01-05 09:55:00,
2013-01-05 05:01:00,22.5,14.8,30.33,NE,45,0.0,0.0,72,0.00,,,0.00,pywws,2013-01-05 10:01:00,
2013-01-05 05:07:00,21.9,14.3,30.32,NE,45,0.0,0.0,72,0.00,,,0.00,pywws,2013-01-05 10:07:00,
2013-01-05 05:12:00,21.7,14.4,30.32,SW,225,0.7,1.6,73,0.00,,,0.00,pywws,2013-01-05 10:12:00,
2013-01-05 05:19:00,21.6,14.3,30.33,West,270,0.0,0.0,73,0.00,,,0.00,pywws,2013-01-05 10:19:00,
2013-01-05 05:24:00,21.4,14.1,30.33,South,180,0.7,1.6,73,0.00,,,0.00,pywws,2013-01-05 10:24:00,
2013-01-05 05:31:00,21.2,14.2,30.33,SW,225,0.0,1.6,74,0.00,,,0.00,pywws,2013-01-05 10:31:00,
2013-01-05 05:39:00,21.0,14.4,30.33,SW,225,0.0,0.0,75,0.00,,,0.00,pywws,2013-01-05 10:39:00,
2013-01-05 05:46:00,20.8,14.2,30.32,SW,225,0.7,1.6,75,0.00,,,0.00,pywws,2013-01-05 10:46:00,
2013-01-05 05:52:00,21.0,14.4,30.32,SW,225,0.0,0.7,75,0.00,,,0.00,pywws,2013-01-05 10:52:00,
2013-01-05 05:57:00,21.0,14.4,30.32,West,270,0.7,1.6,75,0.00,,,0.00,pywws,2013-01-05 10:57:00,
2013-01-05 06:03:00,21.2,14.2,30.32,SW,225,1.6,2.2,74,0.00,,,0.00,pywws,2013-01-05 11:03:00,
2013-01-05 06:09:00,21.4,14.7,30.33,SW,225,1.6,2.2,75,0.00,,,0.00,pywws,2013-01-05 11:09:00,
2013-01-05 06:16:00,21.6,14.9,30.33,SW,225,0.0,0.7,75,0.00,,,0.00,pywws,2013-01-05 11:16:00,
2013-01-05 06:22:00,21.4,14.4,30.33,South,180,0.0,0.7,74,0.00,,,0.00,pywws,2013-01-05 11:22:00,
2013-01-05 06:28:00,21.2,14.2,30.34,SW,225,0.7,1.6,74,0.00,,,0.00,pywws,2013-01-05 11:28:00,
2013-01-05 06:34:00,21.0,14.4,30.33,NE,45,0.0,0.0,75,0.00,,,0.00,pywws,2013-01-05 11:34:00,
2013-01-05 06:40:00,20.7,14.3,30.33,NE,45,0.0,0.7,76,0.00,,,0.00,pywws,2013-01-05 11:40:00,
2013-01-05 06:46:00,20.5,14.1,30.33,SW,225,0.7,1.6,76,0.00,,,0.00,pywws,2013-01-05 11:46:00,
2013-01-05 06:52:00,20.7,14.3,30.34,SW,225,0.0,0.7,76,0.00,,,0.00,pywws,2013-01-05 11:52:00,
2013-01-05 06:57:00,20.7,14.3,30.34,NE,45,0.0,0.7,76,0.00,,,0.00,pywws,2013-01-05 11:57:00,
2013-01-05 07:03:00,20.7,14.3,30.34,NE,45,0.0,0.7,76,0.00,,,0.00,pywws,2013-01-05 12:03:00,
2013-01-05 07:09:00,20.5,14.1,30.34,West,270,0.0,0.0,76,0.00,,,0.00,pywws,2013-01-05 12:09:00,
2013-01-05 07:15:00,20.3,14.3,30.34,NE,45,0.0,0.7,77,0.00,,,0.00,pywws,2013-01-05 12:15:00,
2013-01-05 07:20:00,20.3,14.3,30.34,South,180,0.0,0.7,77,0.00,,,0.00,pywws,2013-01-05 12:20:00,
2013-01-05 07:26:00,20.3,14.3,30.34,West,270,0.0,1.6,77,0.00,,,0.00,pywws,2013-01-05 12:26:00,
2013-01-05 07:32:00,20.5,14.4,30.35,SW,225,1.6,3.1,77,0.00,,,0.00,pywws,2013-01-05 12:32:00,
2013-01-05 07:37:00,20.8,14.8,30.35,SW,225,0.0,0.7,77,0.00,,,0.00,pywws,2013-01-05 12:37:00,
2013-01-05 07:43:00,21.0,15.0,30.35,NE,45,0.0,0.0,77,0.00,,,0.00,pywws,2013-01-05 12:43:00,
2013-01-05 07:48:00,20.8,14.8,30.35,NE,45,0.0,0.7,77,0.00,,,0.00,pywws,2013-01-05 12:48:00,
2013-01-05 07:54:00,20.7,14.6,30.36,West,270,0.7,1.6,77,0.00,,,0.00,pywws,2013-01-05 12:54:00,
2013-01-05 08:00:00,20.8,14.8,30.36,North,0,0.0,0.0,77,0.00,,,0.00,pywws,2013-01-05 13:00:00,
2013-01-05 08:06:00,21.0,15.0,30.37,SW,225,0.0,0.0,77,0.00,,,0.00,pywws,2013-01-05 13:06:00,
2013-01-05 08:12:00,21.9,15.5,30.36,NE,45,0.7,1.6,76,0.00,,,0.00,pywws,2013-01-05 13:12:00,
2013-01-05 08:17:00,23.0,16.3,30.37,SW,225,0.0,0.7,75,0.00,,,0.00,pywws,2013-01-05 13:17:00,
2013-01-05 08:23:00,23.9,17.2,30.37,SW,225,0.0,0.0,75,0.00,,,0.00,pywws,2013-01-05 13:23:00,
2013-01-05 08:28:00,25.5,18.4,30.37,NE,45,0.0,0.0,74,0.00,,,0.00,pywws,2013-01-05 13:28:00,
2013-01-05 08:35:00,26.6,18.5,30.37,NE,45,0.0,0.0,71,0.00,,,0.00,pywws,2013-01-05 13:35:00,
2013-01-05 08:40:00,27.3,18.5,30.37,NE,45,0.7,1.6,69,0.00,,,0.00,pywws,2013-01-05 13:40:00,
2013-01-05 08:46:00,28.0,18.9,30.37,NE,45,0.0,0.0,68,0.00,,,0.00,pywws,2013-01-05 13:46:00,
2013-01-05 08:52:00,28.8,20.6,30.37,NW,315,0.0,0.0,71,0.00,,,0.00,pywws,2013-01-05 13:52:00,
2013-01-05 08:57:00,28.9,20.1,30.37,North,0,0.0,0.0,69,0.00,,,0.00,pywws,2013-01-05 13:57:00,
2013-01-05 09:03:00,29.1,19.9,30.37,NE,45,0.0,0.0,68,0.00,,,0.00,pywws,2013-01-05 14:03:00,
2013-01-05 09:08:00,30.6,20.6,30.36,East,90,0.0,0.7,66,0.00,,,0.00,pywws,2013-01-05 14:08:00,
2013-01-05 09:14:00,32.7,22.3,30.36,SSE,158,0.0,0.7,65,0.00,,,0.00,pywws,2013-01-05 14:14:00,
2013-01-05 09:20:00,33.3,21.7,30.36,NW,315,0.0,1.6,62,0.00,,,0.00,pywws,2013-01-05 14:20:00,
2013-01-05 09:25:00,32.7,20.0,30.37,NW,315,0.0,1.6,59,0.00,,,0.00,pywws,2013-01-05 14:25:00,
2013-01-05 09:31:00,32.5,19.8,30.37,South,180,1.6,3.8,59,0.00,,,0.00,pywws,2013-01-05 14:31:00,
2013-01-05 09:36:00,31.5,18.8,30.37,West,270,1.6,3.1,59,0.00,,,0.00,pywws,2013-01-05 14:36:00,
2013-01-05 09:42:00,30.7,18.5,30.37,SW,225,2.2,3.8,60,0.00,,,0.00,pywws,2013-01-05 14:42:00,
2013-01-05 09:48:00,32.2,20.3,30.37,NW,315,0.7,2.2,61,0.00,,,0.00,pywws,2013-01-05 14:48:00,
2013-01-05 09:53:00,33.1,20.3,30.37,West,270,0.0,1.6,59,0.00,,,0.00,pywws,2013-01-05 14:53:00,
2013-01-05 09:59:00,34.0,21.2,30.36,NE,45,1.6,2.2,59,0.00,,,0.00,pywws,2013-01-05 14:59:00,
2013-01-05 10:04:00,34.9,20.8,30.36,SE,135,0.7,1.6,56,0.00,,,0.00,pywws,2013-01-05 15:04:00,
2013-01-05 10:10:00,35.4,20.9,30.36,NW,315,2.2,5.4,55,0.00,,,0.00,pywws,2013-01-05 15:10:00,
2013-01-05 10:16:00,36.9,21.3,30.35,ESE,112,0.7,1.6,53,0.00,,,0.00,pywws,2013-01-05 15:16:00,
2013-01-05 10:21:00,38.3,24.0,30.35,East,90,0.0,0.7,56,0.00,,,0.00,pywws,2013-01-05 15:21:00,
2013-01-05 10:27:00,39.2,23.5,30.35,NE,45,0.7,2.2,53,0.00,,,0.00,pywws,2013-01-05 15:27:00,
2013-01-05 10:32:00,39.7,22.6,30.35,East,90,0.7,1.6,50,0.00,,,0.00,pywws,2013-01-05 15:32:00,
2013-01-05 10:38:00,39.7,23.1,30.34,East,90,0.7,1.6,51,0.00,,,0.00,pywws,2013-01-05 15:38:00,
2013-01-05 10:44:00,40.1,23.4,30.34,South,180,1.6,2.2,51,0.00,,,0.00,pywws,2013-01-05 15:44:00,
2013-01-05 10:49:00,42.8,25.5,30.34,NE,45,1.6,2.2,50,0.00,,,0.00,pywws,2013-01-05 15:49:00,
2013-01-05 10:55:00,43.0,22.6,30.34,East,90,0.7,1.6,44,0.00,,,0.00,pywws,2013-01-05 15:55:00,
2013-01-05 11:01:00,42.6,22.3,30.34,NE,45,0.7,1.6,44,0.00,,,0.00,pywws,2013-01-05 16:01:00,
2013-01-05 11:07:00,42.1,21.2,30.34,SSE,158,0.7,1.6,43,0.00,,,0.00,pywws,2013-01-05 16:07:00,
2013-01-05 11:12:00,42.8,21.3,30.33,NE,45,0.7,2.2,42,0.00,,,0.00,pywws,2013-01-05 16:12:00,
2013-01-05 11:18:00,43.2,19.9,30.33,NE,45,1.6,2.2,39,0.00,,,0.00,pywws,2013-01-05 16:18:00,
2013-01-05 11:24:00,43.5,21.4,30.32,SE,135,0.7,2.2,41,0.00,,,0.00,pywws,2013-01-05 16:24:00,
2013-01-05 11:29:00,42.8,18.4,30.31,ENE,68,2.2,3.8,37,0.00,,,0.00,pywws,2013-01-05 16:29:00,
2013-01-05 11:35:00,41.7,18.6,30.30,NE,45,2.2,3.1,39,0.00,,,0.00,pywws,2013-01-05 16:35:00,
2013-01-05 11:40:00,42.3,19.1,30.30,NE,45,1.6,2.2,39,0.00,,,0.00,pywws,2013-01-05 16:40:00,
2013-01-05 11:46:00,43.0,17.9,30.29,East,90,1.6,2.2,36,0.00,,,0.00,pywws,2013-01-05 16:46:00,
2013-01-05 11:52:00,43.5,17.0,30.29,WSW,248,1.6,3.1,34,0.00,,,0.00,pywws,2013-01-05 16:52:00,
2013-01-05 11:57:00,45.7,19.6,30.29,East,90,1.6,5.4,35,0.00,,,0.00,pywws,2013-01-05 16:57:00,
2013-01-05 12:03:00,46.9,17.9,30.29,SE,135,2.2,3.8,31,0.00,,,0.00,pywws,2013-01-05 17:03:00,
2013-01-05 12:08:00,48.6,21.5,30.29,SE,135,3.1,4.5,34,0.00,,,0.00,pywws,2013-01-05 17:08:00,
2013-01-05 12:14:00,49.8,22.6,30.29,SE,135,1.6,2.2,34,0.00,,,0.00,pywws,2013-01-05 17:14:00,
2013-01-05 12:20:00,49.8,18.9,30.28,East,90,1.6,3.1,29,0.00,,,0.00,pywws,2013-01-05 17:20:00,
2013-01-05 12:25:00,51.3,20.1,30.28,East,90,0.7,1.6,29,0.00,,,0.00,pywws,2013-01-05 17:25:00,
2013-01-05 12:31:00,51.6,16.0,30.27,WSW,248,1.6,3.1,24,0.00,,,0.00,pywws,2013-01-05 17:31:00,
2013-01-05 12:36:00,52.2,17.4,30.27,East,90,2.2,3.1,25,0.00,,,0.00,pywws,2013-01-05 17:36:00,
2013-01-05 12:42:00,51.6,17.9,30.27,East,90,1.6,2.2,26,0.00,,,0.00,pywws,2013-01-05 17:42:00,
2013-01-05 12:48:00,51.8,17.1,30.27,South,180,2.2,3.8,25,0.00,,,0.00,pywws,2013-01-05 17:48:00,
2013-01-05 12:53:00,52.3,19.4,30.28,SW,225,1.6,3.1,27,0.00,,,0.00,pywws,2013-01-05 17:53:00,
2013-01-05 12:59:00,54.3,19.3,30.27,SW,225,2.2,5.4,25,0.00,,,0.00,pywws,2013-01-05 17:59:00,
2013-01-05 13:04:00,53.2,17.4,30.27,South,180,2.2,3.8,24,0.00,,,0.00,pywws,2013-01-05 18:04:00,
2013-01-05 13:10:00,53.2,16.4,30.27,North,0,3.1,4.5,23,0.00,,,0.00,pywws,2013-01-05 18:10:00,
2013-01-05 13:16:00,52.9,15.1,30.26,SE,135,5.4,6.9,22,0.00,,,0.00,pywws,2013-01-05 18:16:00,
2013-01-05 13:21:00,52.9,16.1,30.26,NE,45,0.7,1.6,23,0.00,,,0.00,pywws,2013-01-05 18:21:00,
2013-01-05 13:27:00,53.2,16.4,30.26,ESE,112,3.8,6.9,23,0.00,,,0.00,pywws,2013-01-05 18:27:00,
2013-01-05 13:32:00,52.7,16.0,30.25,NE,45,1.6,3.1,23,0.00,,,0.00,pywws,2013-01-05 18:32:00,
2013-01-05 13:38:00,53.8,15.8,30.25,East,90,0.7,2.2,22,0.00,,,0.00,pywws,2013-01-05 18:38:00,
2013-01-05 13:44:00,53.1,16.3,30.25,SW,225,3.1,5.4,23,0.00,,,0.00,pywws,2013-01-05 18:44:00,
2013-01-05 13:49:00,53.8,15.8,30.24,East,90,0.0,0.7,22,0.00,,,0.00,pywws,2013-01-05 18:49:00,
2013-01-05 13:55:00,56.7,21.2,30.24,East,90,0.7,1.6,25,0.00,,,0.00,pywws,2013-01-05 18:55:00,
2013-01-05 14:00:00,56.1,20.8,30.24,NE,45,2.2,4.5,25,0.00,,,0.00,pywws,2013-01-05 19:00:00,
2013-01-05 14:06:00,55.6,20.3,30.24,SE,135,2.2,4.5,25,0.00,,,0.00,pywws,2013-01-05 19:06:00,
2013-01-05 14:12:00,53.4,17.5,30.24,SW,225,0.7,2.2,24,0.00,,,0.00,pywws,2013-01-05 19:12:00,
2013-01-05 14:17:00,52.9,18.0,30.24,South,180,2.2,5.4,25,0.00,,,0.00,pywws,2013-01-05 19:17:00,
2013-01-05 14:23:00,54.0,18.0,30.24,South,180,2.2,5.4,24,0.00,,,0.00,pywws,2013-01-05 19:23:00,
2013-01-05 14:28:00,53.6,17.7,30.24,WNW,292,3.8,6.0,24,0.00,,,0.00,pywws,2013-01-05 19:28:00,
2013-01-05 14:35:00,53.4,18.5,30.24,SE,135,2.2,3.8,25,0.00,,,0.00,pywws,2013-01-05 19:35:00,
2013-01-05 14:40:00,54.9,20.6,30.24,West,270,0.7,1.6,26,0.00,,,0.00,pywws,2013-01-05 19:40:00,
2013-01-05 14:46:00,57.0,21.6,30.24,South,180,3.8,5.4,25,0.00,,,0.00,pywws,2013-01-05 19:46:00,
2013-01-05 14:52:00,56.5,22.0,30.23,ENE,68,2.2,4.5,26,0.00,,,0.00,pywws,2013-01-05 19:52:00,
2013-01-05 14:57:00,54.7,18.6,30.24,South,180,1.6,3.1,24,0.00,,,0.00,pywws,2013-01-05 19:57:00,
2013-01-05 15:03:00,54.1,18.2,30.23,NW,315,0.7,1.6,24,0.00,,,0.00,pywws,2013-01-05 20:03:00,
2013-01-05 15:08:00,53.2,18.3,30.23,SW,225,0.7,1.6,25,0.00,,,0.00,pywws,2013-01-05 20:08:00,
2013-01-05 15:14:00,52.9,18.0,30.23,SW,225,2.2,3.8,25,0.00,,,0.00,pywws,2013-01-05 20:14:00,
2013-01-05 15:20:00,52.7,20.5,30.23,SE,135,2.2,3.8,28,0.00,,,0.00,pywws,2013-01-05 20:20:00,
2013-01-05 15:25:00,53.1,19.1,30.23,East,90,1.6,3.1,26,0.00,,,0.00,pywws,2013-01-05 20:25:00,
2013-01-05 15:31:00,53.6,18.6,30.22,SW,225,1.6,3.1,25,0.00,,,0.00,pywws,2013-01-05 20:31:00,
2013-01-05 15:36:00,54.3,18.3,30.22,East,90,1.6,3.1,24,0.00,,,0.00,pywws,2013-01-05 20:36:00,
2013-01-05 15:42:00,54.3,17.3,30.22,South,180,3.1,4.5,23,0.00,,,0.00,pywws,2013-01-05 20:42:00,
2013-01-05 15:48:00,52.9,18.0,30.22,South,180,2.2,3.8,25,0.00,,,0.00,pywws,2013-01-05 20:48:00,
2013-01-05 15:53:00,52.3,17.6,30.22,South,180,3.8,6.0,25,0.00,,,0.00,pywws,2013-01-05 20:53:00,
2013-01-05 15:59:00,52.2,18.3,30.22,SW,225,2.2,4.5,26,0.00,,,0.00,pywws,2013-01-05 20:59:00,
2013-01-05 16:04:00,51.8,18.9,30.23,South,180,0.7,2.2,27,0.00,,,0.00,pywws,2013-01-05 21:04:00,
2013-01-05 16:10:00,51.8,18.9,30.22,South,180,0.0,2.2,27,0.00,,,0.00,pywws,2013-01-05 21:10:00,
2013-01-05 16:16:00,51.4,19.4,30.22,South,180,3.1,5.4,28,0.00,,,0.00,pywws,2013-01-05 21:16:00,
2013-01-05 16:21:00,50.7,18.8,30.23,South,180,2.2,5.4,28,0.00,,,0.00,pywws,2013-01-05 21:21:00,
2013-01-05 16:27:00,50.4,19.3,30.23,South,180,0.0,0.7,29,0.00,,,0.00,pywws,2013-01-05 21:27:00,
2013-01-05 16:32:00,50.0,20.6,30.23,South,180,3.1,5.4,31,0.00,,,0.00,pywws,2013-01-05 21:32:00,
2013-01-05 16:38:00,49.6,19.5,30.23,SW,225,2.2,3.8,30,0.00,,,0.00,pywws,2013-01-05 21:38:00,
2013-01-05 16:44:00,49.1,20.5,30.23,East,90,0.7,1.6,32,0.00,,,0.00,pywws,2013-01-05 21:44:00,
2013-01-05 16:49:00,48.7,18.7,30.23,South,180,0.7,2.2,30,0.00,,,0.00,pywws,2013-01-05 21:49:00,
2013-01-05 16:55:00,48.4,17.6,30.23,East,90,0.7,1.6,29,0.00,,,0.00,pywws,2013-01-05 21:55:00,
2013-01-05 17:00:00,48.0,18.8,30.23,SE,135,3.1,3.8,31,0.00,,,0.00,pywws,2013-01-05 22:00:00,
2013-01-05 17:06:00,47.7,18.5,30.23,West,270,1.6,3.1,31,0.00,,,0.00,pywws,2013-01-05 22:06:00,
2013-01-05 17:12:00,47.5,19.1,30.23,NW,315,0.7,1.6,32,0.00,,,0.00,pywws,2013-01-05 22:12:00,
2013-01-05 17:17:00,47.3,21.1,30.23,South,180,0.7,2.2,35,0.00,,,0.00,pywws,2013-01-05 22:17:00,
2013-01-05 17:23:00,46.8,20.6,30.23,South,180,0.0,1.6,35,0.00,,,0.00,pywws,2013-01-05 22:23:00,
2013-01-05 17:28:00,46.6,21.1,30.23,South,180,2.2,3.8,36,0.00,,,0.00,pywws,2013-01-05 22:28:00,
2013-01-05 17:34:00,46.6,20.4,30.23,SE,135,0.7,2.2,35,0.00,,,0.00,pywws,2013-01-05 22:34:00,
2013-01-05 17:40:00,46.2,19.4,30.24,SW,225,1.6,3.1,34,0.00,,,0.00,pywws,2013-01-05 22:40:00,
2013-01-05 17:45:00,45.9,20.4,30.24,NW,315,3.8,6.0,36,0.00,,,0.00,pywws,2013-01-05 22:45:00,
2013-01-05 17:51:00,45.9,20.4,30.23,NW,315,3.8,6.0,36,0.00,,,0.00,pywws,2013-01-05 22:51:00,
2013-01-05 17:56:00,45.1,19.8,30.23,SE,135,1.6,3.1,36,0.00,,,0.00,pywws,2013-01-05 22:56:00,
2013-01-05 18:02:00,44.8,20.1,30.23,NW,315,0.7,2.2,37,0.00,,,0.00,pywws,2013-01-05 23:02:00,
2013-01-05 18:08:00,44.6,20.6,30.23,SE,135,0.7,2.2,38,0.00,,,0.00,pywws,2013-01-05 23:08:00,
2013-01-05 18:13:00,44.4,21.6,30.24,East,90,1.6,4.5,40,0.00,,,0.00,pywws,2013-01-05 23:13:00,
2013-01-05 18:19:00,44.2,21.5,30.23,NE,45,0.0,1.6,40,0.00,,,0.00,pywws,2013-01-05 23:19:00,
2013-01-05 18:24:00,44.1,22.5,30.24,North,0,0.7,2.2,42,0.00,,,0.00,pywws,2013-01-05 23:24:00,
2013-01-05 18:30:00,44.1,22.5,30.24,SE,135,0.0,0.7,42,0.00,,,0.00,pywws,2013-01-05 23:30:00,
2013-01-05 18:36:00,43.9,22.3,30.24,NNW,338,0.7,1.6,42,0.00,,,0.00,pywws,2013-01-05 23:36:00,
2013-01-05 18:41:00,43.7,22.1,30.24,South,180,2.2,4.5,42,0.00,,,0.00,pywws,2013-01-05 23:41:00,
2013-01-05 18:47:00,43.7,22.1,30.24,South,180,2.2,3.1,42,0.00,,,0.00,pywws,2013-01-05 23:47:00,
2013-01-05 18:52:00,43.7,22.1,30.23,South,180,3.1,5.4,42,0.00,,,0.00,pywws,2013-01-05 23:52:00,
2013-01-05 18:58:00,43.5,22.0,30.24,East,90,3.1,5.4,42,0.00,,,0.00,pywws,2013-01-05 23:58:00,
2013-01-05 19:04:00,43.5,22.0,30.24,SE,135,3.8,6.0,42,0.00,,,0.00,pywws,2013-01-06 00:04:00,
2013-01-05 19:10:00,43.3,22.4,30.24,ESE,112,1.6,3.1,43,0.00,,,0.00,pywws,2013-01-06 00:10:00,
2013-01-05 19:16:00,43.2,21.6,30.25,SE,135,1.6,2.2,42,0.00,,,0.00,pywws,2013-01-06 00:16:00,
2013-01-05 19:21:00,43.2,22.2,30.24,ESE,112,1.6,3.1,43,0.00,,,0.00,pywws,2013-01-06 00:21:00,
2013-01-05 19:27:00,43.0,22.0,30.24,South,180,2.2,4.5,43,0.00,,,0.00,pywws,2013-01-06 00:27:00,
2013-01-05 19:32:00,42.8,21.9,30.25,SE,135,1.6,3.1,43,0.00,,,0.00,pywws,2013-01-06 00:32:00,
2013-01-05 19:38:00,42.6,22.3,30.24,South,180,1.6,2.2,44,0.00,,,0.00,pywws,2013-01-06 00:38:00,
2013-01-05 19:44:00,42.4,22.1,30.24,ENE,68,3.8,6.0,44,0.00,,,0.00,pywws,2013-01-06 00:44:00,
2013-01-05 19:49:00,42.4,22.6,30.24,SW,225,1.6,3.1,45,0.00,,,0.00,pywws,2013-01-06 00:49:00,
2013-01-05 19:55:00,42.3,22.5,30.24,South,180,3.1,6.0,45,0.00,,,0.00,pywws,2013-01-06 00:55:00,
2013-01-05 20:00:00,42.3,22.5,30.24,East,90,1.6,3.1,45,0.00,,,0.00,pywws,2013-01-06 01:00:00,
2013-01-05 20:06:00,42.3,22.5,30.24,South,180,3.1,5.4,45,0.00,,,0.00,pywws,2013-01-06 01:06:00,
2013-01-05 20:12:00,42.3,23.0,30.25,West,270,3.1,4.5,46,0.00,,,0.00,pywws,2013-01-06 01:12:00,
2013-01-05 20:17:00,42.3,23.0,30.24,SW,225,3.1,6.0,46,0.00,,,0.00,pywws,2013-01-06 01:17:00,
2013-01-05 20:23:00,42.3,23.0,30.24,South,180,3.8,4.5,46,0.00,,,0.00,pywws,2013-01-06 01:23:00,
2013-01-05 20:28:00,42.1,22.8,30.23,SW,225,3.1,5.4,46,0.00,,,0.00,pywws,2013-01-06 01:28:00,
2013-01-05 20:34:00,42.1,23.3,30.25,SW,225,3.8,5.4,47,0.00,,,0.00,pywws,2013-01-06 01:34:00,
2013-01-05 20:40:00,42.1,23.3,30.25,South,180,3.1,5.4,47,0.00,,,0.00,pywws,2013-01-06 01:40:00,
2013-01-05 20:45:00,42.1,23.3,30.26,NW,315,2.2,3.8,47,0.00,,,0.00,pywws,2013-01-06 01:45:00,
2013-01-05 20:51:00,42.1,23.8,30.25,South,180,1.6,3.1,48,0.00,,,0.00,pywws,2013-01-06 01:51:00,
2013-01-05 20:56:00,42.1,23.3,30.25,SE,135,1.6,3.1,47,0.00,,,0.00,pywws,2013-01-06 01:56:00,
2013-01-05 21:02:00,42.1,23.3,30.25,East,90,0.7,1.6,47,0.00,,,0.00,pywws,2013-01-06 02:02:00,
2013-01-05 21:08:00,41.9,23.7,30.25,East,90,3.8,5.4,48,0.00,,,0.00,pywws,2013-01-06 02:08:00,
2013-01-05 21:13:00,41.9,24.1,30.26,South,180,1.6,3.1,49,0.00,,,0.00,pywws,2013-01-06 02:13:00,
2013-01-05 21:19:00,41.9,24.6,30.26,East,90,1.6,3.8,50,0.00,,,0.00,pywws,2013-01-06 02:19:00,
2013-01-05 21:24:00,41.7,24.9,30.26,South,180,1.6,2.2,51,0.00,,,0.00,pywws,2013-01-06 02:24:00,
2013-01-05 21:31:00,41.7,24.5,30.25,NE,45,2.2,4.5,50,0.00,,,0.00,pywws,2013-01-06 02:31:00,
2013-01-05 21:36:00,41.5,24.3,30.25,South,180,3.1,3.8,50,0.00,,,0.00,pywws,2013-01-06 02:36:00,
2013-01-05 21:42:00,41.4,24.6,30.24,WSW,248,2.2,6.0,51,0.00,,,0.00,pywws,2013-01-06 02:42:00,
2013-01-05 21:48:00,41.4,24.6,30.24,SW,225,2.2,5.4,51,0.00,,,0.00,pywws,2013-01-06 02:48:00,
2013-01-05 21:53:00,41.2,24.9,30.24,SE,135,2.2,3.8,52,0.00,,,0.00,pywws,2013-01-06 02:53:00,
2013-01-05 21:59:00,41.0,24.7,30.23,East,90,2.2,3.1,52,0.00,,,0.00,pywws,2013-01-06 02:59:00,
2013-01-05 22:04:00,41.0,25.2,30.22,South,180,2.2,3.1,53,0.00,,,0.00,pywws,2013-01-06 03:04:00,
2013-01-05 22:10:00,40.8,25.5,30.22,West,270,2.2,3.8,54,0.00,,,0.00,pywws,2013-01-06 03:10:00,
2013-01-05 22:16:00,40.8,25.5,30.23,North,0,1.6,3.1,54,0.00,,,0.00,pywws,2013-01-06 03:16:00,
2013-01-05 22:21:00,40.8,25.5,30.23,South,180,0.7,1.6,54,0.00,,,0.00,pywws,2013-01-06 03:21:00,
2013-01-05 22:27:00,40.8,25.5,30.24,South,180,1.6,2.2,54,0.00,,,0.00,pywws,2013-01-06 03:27:00,
2013-01-05 22:32:00,40.8,25.5,30.23,SE,135,0.0,0.0,54,0.00,,,0.00,pywws,2013-01-06 03:32:00,
2013-01-05 22:39:00,40.6,25.8,30.23,East,90,0.7,1.6,55,0.00,,,0.00,pywws,2013-01-06 03:39:00,
2013-01-05 22:44:00,40.5,26.0,30.24,South,180,0.7,1.6,56,0.00,,,0.00,pywws,2013-01-06 03:44:00,
2013-01-05 22:50:00,40.5,26.4,30.24,SW,225,0.0,0.7,57,0.00,,,0.00,pywws,2013-01-06 03:50:00,
2013-01-05 22:56:00,40.3,26.3,30.23,West,270,0.7,1.6,57,0.00,,,0.00,pywws,2013-01-06 03:56:00,
2013-01-05 23:02:00,40.1,26.1,30.23,SW,225,0.0,0.0,57,0.00,,,0.00,pywws,2013-01-06 04:02:00,
2013-01-05 23:08:00,39.9,26.8,30.24,West,270,2.2,3.8,59,0.00,,,0.00,pywws,2013-01-06 04:08:00,
2013-01-05 23:13:00,39.9,27.6,30.24,SW,225,0.0,1.6,61,0.00,,,0.00,pywws,2013-01-06 04:13:00,
2013-01-05 23:19:00,39.6,28.4,30.24,North,0,0.0,0.7,64,0.00,,,0.00,pywws,2013-01-06 04:19:00,
2013-01-05 23:24:00,39.4,28.2,30.24,North,0,0.0,0.0,64,0.00,,,0.00,pywws,2013-01-06 04:24:00,
2013-01-05 23:30:00,39.2,28.1,30.24,SW,225,0.0,0.7,64,0.00,,,0.00,pywws,2013-01-06 04:30:00,
2013-01-05 23:36:00,39.2,28.4,30.23,West,270,0.0,0.7,65,0.00,,,0.00,pywws,2013-01-06 04:36:00,
2013-01-05 23:41:00,39.2,28.4,30.22,West,270,0.0,0.0,65,0.00,,,0.00,pywws,2013-01-06 04:41:00,
2013-01-05 23:47:00,38.8,29.2,30.22,SW,225,1.6,2.2,68,0.00,,,0.00,pywws,2013-01-06 04:47:00,
2013-01-05 23:52:00,38.7,29.0,30.22,NW,315,0.7,1.6,68,0.00,,,0.00,pywws,2013-01-06 04:52:00,
2013-01-05 23:58:00,38.7,28.7,30.22,West,270,0.0,0.0,67,0.00,,,0.00,pywws,2013-01-06 04:58:00,